sensor_id;sensor_type;location;lat;lon;timestamp;temperature;humidity
11934;DHT22;6026;48.784;9.198;2023-05-23T00:02:16;18.10;99.90
11934;DHT22;6026;48.784;9.198;2023-05-23T00:04:42;18.00;99.90
11934;DHT22;6026;48.784;9.198;2023-05-23T00:07:09;18.00;99.90
11934;DHT22;6026;48.784;9.198;2023-05-23T00:09:34;18.00;99.90
11934;DHT22;6026;48.784;9.198;2023-05-23T00:12:00;18.00;99.90
11934;DHT22;6026;48.784;9.198;2023-05-23T00:14:26;17.90;99.90
11934;DHT22;6026;48.784;9.198;2023-05-23T00:16:52;17.90;99.90
11934;DHT22;6026;48.784;9.198;2023-05-23T00:19:17;17.90;99.90
11934;DHT22;6026;48.784;9.198;2023-05-23T00:21:45;17.90;99.90
11934;DHT22;6026;48.784;9.198;2023-05-23T00:24:15;17.80;99.90
11934;DHT22;6026;48.784;9.198;2023-05-23T00:26:43;17.80;99.90
11934;DHT22;6026;48.784;9.198;2023-05-23T00:29:09;17.80;99.90
11934;DHT22;6026;48.784;9.198;2023-05-23T00:31:40;17.80;99.90
11934;DHT22;6026;48.784;9.198;2023-05-23T00:34:05;17.80;99.90
11934;DHT22;6026;48.784;9.198;2023-05-23T00:36:31;17.70;99.90
11934;DHT22;6026;48.784;9.198;2023-05-23T00:39:01;17.70;99.90
11934;DHT22;6026;48.784;9.198;2023-05-23T00:41:26;17.70;99.90
11934;DHT22;6026;48.784;9.198;2023-05-23T00:43:55;17.70;99.90
11934;DHT22;6026;48.784;9.198;2023-05-23T00:46:22;17.70;99.90
11934;DHT22;6026;48.784;9.198;2023-05-23T00:48:48;17.70;99.90
11934;DHT22;6026;48.784;9.198;2023-05-23T00:51:14;17.70;99.90
11934;DHT22;6026;48.784;9.198;2023-05-23T00:53:41;17.70;99.90
11934;DHT22;6026;48.784;9.198;2023-05-23T00:56:08;17.70;99.90
11934;DHT22;6026;48.784;9.198;2023-05-23T00:58:34;17.70;99.90
11934;DHT22;6026;48.784;9.198;2023-05-23T01:01:00;17.70;99.90
11934;DHT22;6026;48.784;9.198;2023-05-23T01:03:26;17.80;99.90
11934;DHT22;6026;48.784;9.198;2023-05-23T01:05:53;17.80;99.90
11934;DHT22;6026;48.784;9.198;2023-05-23T01:08:20;17.80;99.90
11934;DHT22;6026;48.784;9.198;2023-05-23T01:10:46;17.80;99.90
11934;DHT22;6026;48.784;9.198;2023-05-23T01:13:42;17.70;99.90
11934;DHT22;6026;48.784;9.198;2023-05-23T01:16:35;17.70;99.90
11934;DHT22;6026;48.784;9.198;2023-05-23T01:19:16;17.70;99.90
11934;DHT22;6026;48.784;9.198;2023-05-23T01:21:51;17.70;99.90
11934;DHT22;6026;48.784;9.198;2023-05-23T01:24:37;17.70;99.90
11934;DHT22;6026;48.784;9.198;2023-05-23T01:29:47;17.70;99.90
11934;DHT22;6026;48.784;9.198;2023-05-23T01:32:16;17.70;99.90
11934;DHT22;6026;48.784;9.198;2023-05-23T01:34:44;17.70;99.90
11934;DHT22;6026;48.784;9.198;2023-05-23T01:37:11;17.60;99.90
11934;DHT22;6026;48.784;9.198;2023-05-23T01:39:39;17.60;99.90
11934;DHT22;6026;48.784;9.198;2023-05-23T01:42:05;17.60;99.90
11934;DHT22;6026;48.784;9.198;2023-05-23T01:44:33;17.60;99.90
11934;DHT22;6026;48.784;9.198;2023-05-23T01:47:01;17.60;99.90
11934;DHT22;6026;48.784;9.198;2023-05-23T01:49:27;17.60;99.90
11934;DHT22;6026;48.784;9.198;2023-05-23T01:51:53;17.60;99.90
11934;DHT22;6026;48.784;9.198;2023-05-23T01:54:19;17.60;99.90
11934;DHT22;6026;48.784;9.198;2023-05-23T01:56:46;17.60;99.90
11934;DHT22;6026;48.784;9.198;2023-05-23T01:59:12;17.60;99.90
11934;DHT22;6026;48.784;9.198;2023-05-23T02:01:37;17.50;99.90
11934;DHT22;6026;48.784;9.198;2023-05-23T02:04:03;17.50;99.90
11934;DHT22;6026;48.784;9.198;2023-05-23T02:06:29;17.50;99.90
11934;DHT22;6026;48.784;9.198;2023-05-23T02:08:56;17.50;99.90
11934;DHT22;6026;48.784;9.198;2023-05-23T02:11:21;17.50;99.90
11934;DHT22;6026;48.784;9.198;2023-05-23T02:13:47;17.40;99.90
11934;DHT22;6026;48.784;9.198;2023-05-23T02:16:12;17.40;99.90
11934;DHT22;6026;48.784;9.198;2023-05-23T02:18:38;17.40;99.90
11934;DHT22;6026;48.784;9.198;2023-05-23T02:21:04;17.40;99.90
11934;DHT22;6026;48.784;9.198;2023-05-23T02:23:30;17.30;99.90
11934;DHT22;6026;48.784;9.198;2023-05-23T02:25:55;17.30;99.90
11934;DHT22;6026;48.784;9.198;2023-05-23T02:28:21;17.30;99.90
11934;DHT22;6026;48.784;9.198;2023-05-23T02:30:47;17.20;99.90
11934;DHT22;6026;48.784;9.198;2023-05-23T02:33:12;17.20;99.90
11934;DHT22;6026;48.784;9.198;2023-05-23T02:35:38;17.20;99.90
11934;DHT22;6026;48.784;9.198;2023-05-23T02:38:04;17.20;99.90
11934;DHT22;6026;48.784;9.198;2023-05-23T02:40:30;17.20;99.90
11934;DHT22;6026;48.784;9.198;2023-05-23T02:42:55;17.20;99.90
11934;DHT22;6026;48.784;9.198;2023-05-23T02:45:22;17.20;99.90
11934;DHT22;6026;48.784;9.198;2023-05-23T02:47:48;17.20;99.90
11934;DHT22;6026;48.784;9.198;2023-05-23T02:50:13;17.10;99.90
11934;DHT22;6026;48.784;9.198;2023-05-23T02:52:39;17.10;99.90
11934;DHT22;6026;48.784;9.198;2023-05-23T02:55:07;17.20;99.90
11934;DHT22;6026;48.784;9.198;2023-05-23T02:57:32;17.20;99.90
11934;DHT22;6026;48.784;9.198;2023-05-23T02:59:58;17.20;99.90
11934;DHT22;6026;48.784;9.198;2023-05-23T03:02:24;17.20;99.90
11934;DHT22;6026;48.784;9.198;2023-05-23T03:04:50;17.10;99.90
11934;DHT22;6026;48.784;9.198;2023-05-23T03:07:15;17.20;99.90
11934;DHT22;6026;48.784;9.198;2023-05-23T03:09:41;17.20;99.90
11934;DHT22;6026;48.784;9.198;2023-05-23T03:12:06;17.10;99.90
11934;DHT22;6026;48.784;9.198;2023-05-23T03:14:32;17.20;99.90
11934;DHT22;6026;48.784;9.198;2023-05-23T03:16:57;17.20;99.90
11934;DHT22;6026;48.784;9.198;2023-05-23T03:19:23;17.20;99.90
11934;DHT22;6026;48.784;9.198;2023-05-23T03:21:49;17.20;99.90
11934;DHT22;6026;48.784;9.198;2023-05-23T03:24:16;17.20;99.90
11934;DHT22;6026;48.784;9.198;2023-05-23T03:26:42;17.20;99.90
11934;DHT22;6026;48.784;9.198;2023-05-23T03:29:07;17.20;99.90
11934;DHT22;6026;48.784;9.198;2023-05-23T03:31:35;17.20;99.90
11934;DHT22;6026;48.784;9.198;2023-05-23T03:34:01;17.20;99.90
11934;DHT22;6026;48.784;9.198;2023-05-23T03:36:26;17.20;99.90
11934;DHT22;6026;48.784;9.198;2023-05-23T03:38:52;17.20;99.90
11934;DHT22;6026;48.784;9.198;2023-05-23T03:41:18;17.20;99.90
11934;DHT22;6026;48.784;9.198;2023-05-23T03:43:44;17.20;99.90
11934;DHT22;6026;48.784;9.198;2023-05-23T03:46:09;17.30;99.90
11934;DHT22;6026;48.784;9.198;2023-05-23T03:48:35;17.30;99.90
11934;DHT22;6026;48.784;9.198;2023-05-23T03:51:01;17.20;99.90
11934;DHT22;6026;48.784;9.198;2023-05-23T03:53:27;17.20;99.90
11934;DHT22;6026;48.784;9.198;2023-05-23T03:55:52;17.30;99.90
11934;DHT22;6026;48.784;9.198;2023-05-23T03:58:19;17.30;99.90
11934;DHT22;6026;48.784;9.198;2023-05-23T04:00:45;17.20;99.90
11934;DHT22;6026;48.784;9.198;2023-05-23T04:03:10;17.20;99.90
11934;DHT22;6026;48.784;9.198;2023-05-23T04:05:38;17.20;99.90
11934;DHT22;6026;48.784;9.198;2023-05-23T04:08:04;17.20;99.90
11934;DHT22;6026;48.784;9.198;2023-05-23T04:10:29;17.20;99.90
11934;DHT22;6026;48.784;9.198;2023-05-23T04:12:55;17.20;99.90
11934;DHT22;6026;48.784;9.198;2023-05-23T04:15:21;17.20;99.90
11934;DHT22;6026;48.784;9.198;2023-05-23T04:17:46;17.20;99.90
11934;DHT22;6026;48.784;9.198;2023-05-23T04:20:12;17.20;99.90
11934;DHT22;6026;48.784;9.198;2023-05-23T04:22:37;17.20;99.90
11934;DHT22;6026;48.784;9.198;2023-05-23T04:25:04;17.20;99.90
11934;DHT22;6026;48.784;9.198;2023-05-23T04:27:30;17.20;99.90
11934;DHT22;6026;48.784;9.198;2023-05-23T04:29:56;17.20;99.90
11934;DHT22;6026;48.784;9.198;2023-05-23T04:32:23;17.20;99.90
11934;DHT22;6026;48.784;9.198;2023-05-23T04:34:48;17.20;99.90
11934;DHT22;6026;48.784;9.198;2023-05-23T04:37:14;17.20;99.90
11934;DHT22;6026;48.784;9.198;2023-05-23T04:39:41;17.20;99.90
11934;DHT22;6026;48.784;9.198;2023-05-23T04:42:07;17.20;99.90
11934;DHT22;6026;48.784;9.198;2023-05-23T04:44:33;17.20;99.90
11934;DHT22;6026;48.784;9.198;2023-05-23T04:47:01;17.20;99.90
11934;DHT22;6026;48.784;9.198;2023-05-23T04:49:27;17.20;99.90
11934;DHT22;6026;48.784;9.198;2023-05-23T04:51:53;17.20;99.90
11934;DHT22;6026;48.784;9.198;2023-05-23T04:54:19;17.20;99.90
11934;DHT22;6026;48.784;9.198;2023-05-23T04:56:45;17.20;99.90
11934;DHT22;6026;48.784;9.198;2023-05-23T04:59:10;17.20;99.90
11934;DHT22;6026;48.784;9.198;2023-05-23T05:01:37;17.20;99.90
11934;DHT22;6026;48.784;9.198;2023-05-23T05:04:05;17.20;99.90
11934;DHT22;6026;48.784;9.198;2023-05-23T05:06:31;17.30;99.90
11934;DHT22;6026;48.784;9.198;2023-05-23T05:08:57;17.30;99.90
11934;DHT22;6026;48.784;9.198;2023-05-23T05:11:23;17.30;99.90
11934;DHT22;6026;48.784;9.198;2023-05-23T05:13:48;17.30;99.90
11934;DHT22;6026;48.784;9.198;2023-05-23T05:16:14;17.30;99.90
11934;DHT22;6026;48.784;9.198;2023-05-23T05:18:40;17.40;99.90
11934;DHT22;6026;48.784;9.198;2023-05-23T05:21:06;17.40;99.90
11934;DHT22;6026;48.784;9.198;2023-05-23T05:23:32;17.40;99.90
11934;DHT22;6026;48.784;9.198;2023-05-23T05:25:58;17.40;99.90
11934;DHT22;6026;48.784;9.198;2023-05-23T05:28:24;17.40;99.90
11934;DHT22;6026;48.784;9.198;2023-05-23T05:30:50;17.50;99.90
11934;DHT22;6026;48.784;9.198;2023-05-23T05:33:21;17.50;99.90
11934;DHT22;6026;48.784;9.198;2023-05-23T05:35:50;17.50;99.90
11934;DHT22;6026;48.784;9.198;2023-05-23T05:38:16;17.40;99.90
11934;DHT22;6026;48.784;9.198;2023-05-23T05:40:41;17.40;99.90
11934;DHT22;6026;48.784;9.198;2023-05-23T05:43:07;17.50;99.90
11934;DHT22;6026;48.784;9.198;2023-05-23T05:45:33;17.50;99.90
11934;DHT22;6026;48.784;9.198;2023-05-23T05:47:58;17.50;99.90
11934;DHT22;6026;48.784;9.198;2023-05-23T05:50:24;17.50;99.90
11934;DHT22;6026;48.784;9.198;2023-05-23T05:52:49;17.60;99.90
11934;DHT22;6026;48.784;9.198;2023-05-23T05:55:15;17.60;99.90
11934;DHT22;6026;48.784;9.198;2023-05-23T05:57:41;17.60;99.90
11934;DHT22;6026;48.784;9.198;2023-05-23T06:00:08;17.60;99.90
11934;DHT22;6026;48.784;9.198;2023-05-23T06:02:38;17.60;99.90
11934;DHT22;6026;48.784;9.198;2023-05-23T06:05:04;17.70;99.90
11934;DHT22;6026;48.784;9.198;2023-05-23T06:07:32;17.70;99.90
11934;DHT22;6026;48.784;9.198;2023-05-23T06:09:58;17.70;99.90
11934;DHT22;6026;48.784;9.198;2023-05-23T06:12:23;17.80;99.90
11934;DHT22;6026;48.784;9.198;2023-05-23T06:14:49;17.80;99.90
11934;DHT22;6026;48.784;9.198;2023-05-23T06:17:14;17.80;99.90
11934;DHT22;6026;48.784;9.198;2023-05-23T06:19:40;17.90;99.90
11934;DHT22;6026;48.784;9.198;2023-05-23T06:22:06;17.90;99.90
11934;DHT22;6026;48.784;9.198;2023-05-23T06:24:31;17.90;99.90
11934;DHT22;6026;48.784;9.198;2023-05-23T06:26:57;18.00;99.90
11934;DHT22;6026;48.784;9.198;2023-05-23T06:29:23;18.00;99.90
11934;DHT22;6026;48.784;9.198;2023-05-23T06:31:48;18.10;99.90
11934;DHT22;6026;48.784;9.198;2023-05-23T06:34:15;18.10;99.90
11934;DHT22;6026;48.784;9.198;2023-05-23T06:36:41;18.10;99.90
11934;DHT22;6026;48.784;9.198;2023-05-23T06:39:07;18.10;99.90
11934;DHT22;6026;48.784;9.198;2023-05-23T06:41:34;18.20;99.90
11934;DHT22;6026;48.784;9.198;2023-05-23T06:44:00;18.10;99.90
11934;DHT22;6026;48.784;9.198;2023-05-23T06:46:26;18.10;99.90
11934;DHT22;6026;48.784;9.198;2023-05-23T06:48:51;18.10;99.90
11934;DHT22;6026;48.784;9.198;2023-05-23T06:51:17;18.10;99.90
11934;DHT22;6026;48.784;9.198;2023-05-23T06:53:42;18.00;99.90
11934;DHT22;6026;48.784;9.198;2023-05-23T06:56:08;18.00;99.90
11934;DHT22;6026;48.784;9.198;2023-05-23T06:58:33;18.00;99.90
11934;DHT22;6026;48.784;9.198;2023-05-23T07:00:59;17.90;99.90
11934;DHT22;6026;48.784;9.198;2023-05-23T07:03:25;17.90;99.90
11934;DHT22;6026;48.784;9.198;2023-05-23T07:05:51;17.80;99.90
11934;DHT22;6026;48.784;9.198;2023-05-23T07:08:17;17.80;99.90
11934;DHT22;6026;48.784;9.198;2023-05-23T07:10:43;17.80;99.90
11934;DHT22;6026;48.784;9.198;2023-05-23T07:13:08;17.80;99.90
11934;DHT22;6026;48.784;9.198;2023-05-23T07:15:34;17.70;99.90
11934;DHT22;6026;48.784;9.198;2023-05-23T07:17:59;17.60;99.90
11934;DHT22;6026;48.784;9.198;2023-05-23T07:20:25;17.50;99.90
11934;DHT22;6026;48.784;9.198;2023-05-23T07:22:51;17.50;99.90
11934;DHT22;6026;48.784;9.198;2023-05-23T07:25:17;17.40;99.90
11934;DHT22;6026;48.784;9.198;2023-05-23T07:27:43;17.40;99.90
11934;DHT22;6026;48.784;9.198;2023-05-23T07:30:08;17.40;99.90
11934;DHT22;6026;48.784;9.198;2023-05-23T07:32:35;17.40;99.90
11934;DHT22;6026;48.784;9.198;2023-05-23T07:35:00;17.50;99.90
11934;DHT22;6026;48.784;9.198;2023-05-23T07:37:26;17.50;99.90
11934;DHT22;6026;48.784;9.198;2023-05-23T07:39:52;17.50;99.90
11934;DHT22;6026;48.784;9.198;2023-05-23T07:42:18;17.60;99.90
11934;DHT22;6026;48.784;9.198;2023-05-23T07:44:43;17.60;99.90
11934;DHT22;6026;48.784;9.198;2023-05-23T07:47:09;17.60;99.90
11934;DHT22;6026;48.784;9.198;2023-05-23T07:49:35;17.50;99.90
11934;DHT22;6026;48.784;9.198;2023-05-23T07:52:00;17.50;99.90
11934;DHT22;6026;48.784;9.198;2023-05-23T07:54:26;17.50;99.90
11934;DHT22;6026;48.784;9.198;2023-05-23T07:56:52;17.40;99.90
11934;DHT22;6026;48.784;9.198;2023-05-23T07:59:18;17.40;99.90
11934;DHT22;6026;48.784;9.198;2023-05-23T08:01:44;17.50;99.90
11934;DHT22;6026;48.784;9.198;2023-05-23T08:04:09;17.50;99.90
11934;DHT22;6026;48.784;9.198;2023-05-23T08:06:35;17.50;99.90
11934;DHT22;6026;48.784;9.198;2023-05-23T08:09:02;17.50;99.90
11934;DHT22;6026;48.784;9.198;2023-05-23T08:11:28;17.60;99.90
11934;DHT22;6026;48.784;9.198;2023-05-23T08:13:55;17.60;99.90
11934;DHT22;6026;48.784;9.198;2023-05-23T08:16:20;17.60;99.90
11934;DHT22;6026;48.784;9.198;2023-05-23T08:18:46;17.50;99.90
11934;DHT22;6026;48.784;9.198;2023-05-23T08:21:11;17.60;99.90
11934;DHT22;6026;48.784;9.198;2023-05-23T08:23:37;17.40;99.90
11934;DHT22;6026;48.784;9.198;2023-05-23T08:26:02;17.40;99.90
11934;DHT22;6026;48.784;9.198;2023-05-23T08:28:28;17.40;99.90
11934;DHT22;6026;48.784;9.198;2023-05-23T08:30:54;17.30;99.90
11934;DHT22;6026;48.784;9.198;2023-05-23T08:33:21;17.30;99.90
11934;DHT22;6026;48.784;9.198;2023-05-23T08:35:47;17.30;99.90
11934;DHT22;6026;48.784;9.198;2023-05-23T08:38:12;17.30;99.90
11934;DHT22;6026;48.784;9.198;2023-05-23T08:40:39;17.20;99.90
11934;DHT22;6026;48.784;9.198;2023-05-23T08:43:05;17.30;99.90
11934;DHT22;6026;48.784;9.198;2023-05-23T08:45:31;17.20;99.90
11934;DHT22;6026;48.784;9.198;2023-05-23T08:47:59;17.10;99.90
11934;DHT22;6026;48.784;9.198;2023-05-23T08:50:27;17.20;99.90
11934;DHT22;6026;48.784;9.198;2023-05-23T08:52:58;17.20;99.90
11934;DHT22;6026;48.784;9.198;2023-05-23T08:55:27;17.10;99.90
11934;DHT22;6026;48.784;9.198;2023-05-23T08:57:59;17.20;99.90
11934;DHT22;6026;48.784;9.198;2023-05-23T09:00:26;17.20;99.90
11934;DHT22;6026;48.784;9.198;2023-05-23T09:02:52;17.10;99.90
11934;DHT22;6026;48.784;9.198;2023-05-23T09:05:19;17.20;99.90
11934;DHT22;6026;48.784;9.198;2023-05-23T09:07:45;17.20;99.90
11934;DHT22;6026;48.784;9.198;2023-05-23T09:10:15;17.20;99.90
11934;DHT22;6026;48.784;9.198;2023-05-23T09:12:47;17.20;99.90
11934;DHT22;6026;48.784;9.198;2023-05-23T09:15:12;17.20;99.90
11934;DHT22;6026;48.784;9.198;2023-05-23T09:17:39;17.20;99.90
11934;DHT22;6026;48.784;9.198;2023-05-23T09:20:12;17.20;99.90
11934;DHT22;6026;48.784;9.198;2023-05-23T09:22:39;17.30;99.90
11934;DHT22;6026;48.784;9.198;2023-05-23T09:25:05;17.30;99.90
11934;DHT22;6026;48.784;9.198;2023-05-23T09:27:31;17.30;99.90
11934;DHT22;6026;48.784;9.198;2023-05-23T09:29:56;17.30;99.90
11934;DHT22;6026;48.784;9.198;2023-05-23T09:32:22;17.30;99.90
11934;DHT22;6026;48.784;9.198;2023-05-23T09:34:57;17.30;99.90
11934;DHT22;6026;48.784;9.198;2023-05-23T09:37:38;17.30;99.90
11934;DHT22;6026;48.784;9.198;2023-05-23T09:40:14;17.30;99.90
11934;DHT22;6026;48.784;9.198;2023-05-23T09:42:45;17.30;99.90
11934;DHT22;6026;48.784;9.198;2023-05-23T09:45:14;17.40;99.90
11934;DHT22;6026;48.784;9.198;2023-05-23T09:47:53;17.50;99.90
11934;DHT22;6026;48.784;9.198;2023-05-23T09:50:19;17.60;99.90
11934;DHT22;6026;48.784;9.198;2023-05-23T09:52:45;17.70;99.90
11934;DHT22;6026;48.784;9.198;2023-05-23T09:55:11;17.80;99.90
11934;DHT22;6026;48.784;9.198;2023-05-23T09:57:40;17.90;99.90
11934;DHT22;6026;48.784;9.198;2023-05-23T10:00:08;18.00;99.90
11934;DHT22;6026;48.784;9.198;2023-05-23T10:08:12;18.10;99.90
11934;DHT22;6026;48.784;9.198;2023-05-23T10:13:25;18.10;99.90
11934;DHT22;6026;48.784;9.198;2023-05-23T10:16:27;18.20;99.90
11934;DHT22;6026;48.784;9.198;2023-05-23T10:19:00;18.30;99.90
11934;DHT22;6026;48.784;9.198;2023-05-23T10:21:35;18.40;99.90
11934;DHT22;6026;48.784;9.198;2023-05-23T10:24:04;18.50;99.90
11934;DHT22;6026;48.784;9.198;2023-05-23T10:26:30;18.70;99.90
11934;DHT22;6026;48.784;9.198;2023-05-23T10:28:56;18.80;99.90
11934;DHT22;6026;48.784;9.198;2023-05-23T10:31:23;19.00;99.90
11934;DHT22;6026;48.784;9.198;2023-05-23T10:34:20;19.10;99.90
11934;DHT22;6026;48.784;9.198;2023-05-23T10:36:52;19.20;99.90
11934;DHT22;6026;48.784;9.198;2023-05-23T10:42:41;19.30;99.90
11934;DHT22;6026;48.784;9.198;2023-05-23T10:45:20;19.40;99.90
11934;DHT22;6026;48.784;9.198;2023-05-23T10:47:47;19.50;99.90
11934;DHT22;6026;48.784;9.198;2023-05-23T10:50:15;19.50;99.90
11934;DHT22;6026;48.784;9.198;2023-05-23T10:52:41;19.60;99.90
11934;DHT22;6026;48.784;9.198;2023-05-23T10:55:14;19.50;99.90
11934;DHT22;6026;48.784;9.198;2023-05-23T10:57:43;19.50;99.90
11934;DHT22;6026;48.784;9.198;2023-05-23T11:00:13;19.50;99.90
11934;DHT22;6026;48.784;9.198;2023-05-23T11:02:58;19.50;99.90
11934;DHT22;6026;48.784;9.198;2023-05-23T11:05:26;19.50;99.90
11934;DHT22;6026;48.784;9.198;2023-05-23T11:13:16;19.50;99.90
11934;DHT22;6026;48.784;9.198;2023-05-23T11:15:41;19.60;99.90
11934;DHT22;6026;48.784;9.198;2023-05-23T11:18:09;19.60;99.90
11934;DHT22;6026;48.784;9.198;2023-05-23T11:20:36;19.60;99.90
11934;DHT22;6026;48.784;9.198;2023-05-23T11:23:06;19.60;99.90
11934;DHT22;6026;48.784;9.198;2023-05-23T11:25:43;19.60;99.90
11934;DHT22;6026;48.784;9.198;2023-05-23T11:28:11;19.80;99.90
11934;DHT22;6026;48.784;9.198;2023-05-23T11:30:36;19.90;99.90
11934;DHT22;6026;48.784;9.198;2023-05-23T11:33:07;20.00;99.90
11934;DHT22;6026;48.784;9.198;2023-05-23T11:35:43;20.00;99.90
11934;DHT22;6026;48.784;9.198;2023-05-23T11:38:09;20.00;99.90
11934;DHT22;6026;48.784;9.198;2023-05-23T11:40:38;20.10;99.90
11934;DHT22;6026;48.784;9.198;2023-05-23T11:43:06;20.10;99.90
11934;DHT22;6026;48.784;9.198;2023-05-23T11:45:33;20.00;99.90
11934;DHT22;6026;48.784;9.198;2023-05-23T11:48:10;19.90;99.90
11934;DHT22;6026;48.784;9.198;2023-05-23T11:53:09;19.90;99.90
11934;DHT22;6026;48.784;9.198;2023-05-23T11:55:35;19.70;99.90
11934;DHT22;6026;48.784;9.198;2023-05-23T11:58:04;19.90;99.90
11934;DHT22;6026;48.784;9.198;2023-05-23T12:00:29;19.90;99.90
11934;DHT22;6026;48.784;9.198;2023-05-23T12:02:55;20.00;99.90
11934;DHT22;6026;48.784;9.198;2023-05-23T12:05:21;20.20;99.90
11934;DHT22;6026;48.784;9.198;2023-05-23T12:07:48;20.40;99.90
11934;DHT22;6026;48.784;9.198;2023-05-23T12:10:14;20.60;99.90
11934;DHT22;6026;48.784;9.198;2023-05-23T12:12:46;20.70;99.90
11934;DHT22;6026;48.784;9.198;2023-05-23T12:15:12;20.90;99.90
11934;DHT22;6026;48.784;9.198;2023-05-23T12:17:38;21.00;99.90
11934;DHT22;6026;48.784;9.198;2023-05-23T12:20:05;21.10;99.90
11934;DHT22;6026;48.784;9.198;2023-05-23T12:22:31;21.10;99.90
11934;DHT22;6026;48.784;9.198;2023-05-23T12:24:57;21.20;99.90
11934;DHT22;6026;48.784;9.198;2023-05-23T12:27:27;21.10;99.90
11934;DHT22;6026;48.784;9.198;2023-05-23T12:30:04;21.20;99.90
11934;DHT22;6026;48.784;9.198;2023-05-23T12:32:32;21.70;99.90
11934;DHT22;6026;48.784;9.198;2023-05-23T12:34:57;22.00;99.90
11934;DHT22;6026;48.784;9.198;2023-05-23T12:37:23;22.30;99.90
11934;DHT22;6026;48.784;9.198;2023-05-23T12:39:50;22.70;99.90
11934;DHT22;6026;48.784;9.198;2023-05-23T12:42:15;22.90;99.90
11934;DHT22;6026;48.784;9.198;2023-05-23T12:44:41;22.80;99.90
11934;DHT22;6026;48.784;9.198;2023-05-23T12:47:11;22.80;99.90
11934;DHT22;6026;48.784;9.198;2023-05-23T12:49:37;22.70;99.90
11934;DHT22;6026;48.784;9.198;2023-05-23T12:52:03;22.50;99.90
11934;DHT22;6026;48.784;9.198;2023-05-23T12:54:28;22.50;99.90
11934;DHT22;6026;48.784;9.198;2023-05-23T12:56:54;22.40;99.90
11934;DHT22;6026;48.784;9.198;2023-05-23T12:59:19;22.60;99.90
11934;DHT22;6026;48.784;9.198;2023-05-23T13:01:45;22.70;99.90
11934;DHT22;6026;48.784;9.198;2023-05-23T13:04:11;22.80;99.90
11934;DHT22;6026;48.784;9.198;2023-05-23T13:06:37;23.00;99.90
11934;DHT22;6026;48.784;9.198;2023-05-23T13:09:02;23.30;99.90
11934;DHT22;6026;48.784;9.198;2023-05-23T13:11:28;23.40;99.90
11934;DHT22;6026;48.784;9.198;2023-05-23T13:13:55;23.50;99.90
11934;DHT22;6026;48.784;9.198;2023-05-23T13:16:21;23.50;99.90
11934;DHT22;6026;48.784;9.198;2023-05-23T13:18:46;23.40;99.90
11934;DHT22;6026;48.784;9.198;2023-05-23T13:21:12;23.10;99.90
11934;DHT22;6026;48.784;9.198;2023-05-23T13:23:38;22.80;99.90
11934;DHT22;6026;48.784;9.198;2023-05-23T13:26:04;22.60;99.90
11934;DHT22;6026;48.784;9.198;2023-05-23T13:28:31;22.20;99.90
11934;DHT22;6026;48.784;9.198;2023-05-23T13:30:56;22.10;99.90
11934;DHT22;6026;48.784;9.198;2023-05-23T13:33:22;22.10;99.90
11934;DHT22;6026;48.784;9.198;2023-05-23T13:35:48;22.00;99.90
11934;DHT22;6026;48.784;9.198;2023-05-23T13:38:17;21.70;99.90
11934;DHT22;6026;48.784;9.198;2023-05-23T13:40:43;21.50;99.90
11934;DHT22;6026;48.784;9.198;2023-05-23T13:43:09;21.30;99.90
11934;DHT22;6026;48.784;9.198;2023-05-23T13:45:35;21.00;99.90
11934;DHT22;6026;48.784;9.198;2023-05-23T13:48:01;20.80;99.90
11934;DHT22;6026;48.784;9.198;2023-05-23T13:50:26;20.70;99.90
11934;DHT22;6026;48.784;9.198;2023-05-23T13:52:52;20.60;99.90
11934;DHT22;6026;48.784;9.198;2023-05-23T13:55:18;20.50;99.90
11934;DHT22;6026;48.784;9.198;2023-05-23T13:57:43;20.50;99.90
11934;DHT22;6026;48.784;9.198;2023-05-23T14:00:09;20.60;99.90
11934;DHT22;6026;48.784;9.198;2023-05-23T14:02:35;20.80;99.90
11934;DHT22;6026;48.784;9.198;2023-05-23T14:05:01;20.80;99.90
11934;DHT22;6026;48.784;9.198;2023-05-23T14:07:27;20.90;99.90
11934;DHT22;6026;48.784;9.198;2023-05-23T14:09:52;21.00;99.90
11934;DHT22;6026;48.784;9.198;2023-05-23T14:12:18;21.20;99.90
11934;DHT22;6026;48.784;9.198;2023-05-23T14:14:44;21.30;99.90
11934;DHT22;6026;48.784;9.198;2023-05-23T14:17:17;21.50;99.90
11934;DHT22;6026;48.784;9.198;2023-05-23T14:19:43;21.60;99.90
11934;DHT22;6026;48.784;9.198;2023-05-23T14:22:08;21.70;99.90
11934;DHT22;6026;48.784;9.198;2023-05-23T14:24:35;21.80;99.90
11934;DHT22;6026;48.784;9.198;2023-05-23T14:27:01;21.80;99.90
11934;DHT22;6026;48.784;9.198;2023-05-23T14:29:26;21.90;99.90
11934;DHT22;6026;48.784;9.198;2023-05-23T14:31:52;22.00;99.90
11934;DHT22;6026;48.784;9.198;2023-05-23T14:34:18;22.20;99.90
11934;DHT22;6026;48.784;9.198;2023-05-23T14:36:43;22.30;99.90
11934;DHT22;6026;48.784;9.198;2023-05-23T14:39:09;22.20;99.90
11934;DHT22;6026;48.784;9.198;2023-05-23T14:41:35;22.20;99.90
11934;DHT22;6026;48.784;9.198;2023-05-23T14:44:02;22.30;99.90
11934;DHT22;6026;48.784;9.198;2023-05-23T14:46:28;22.30;99.90
11934;DHT22;6026;48.784;9.198;2023-05-23T14:48:53;22.30;99.90
11934;DHT22;6026;48.784;9.198;2023-05-23T14:51:19;22.30;99.90
11934;DHT22;6026;48.784;9.198;2023-05-23T14:53:44;22.30;99.90
11934;DHT22;6026;48.784;9.198;2023-05-23T14:56:10;22.30;99.90
11934;DHT22;6026;48.784;9.198;2023-05-23T14:58:35;22.00;99.90
11934;DHT22;6026;48.784;9.198;2023-05-23T15:01:01;21.80;99.90
11934;DHT22;6026;48.784;9.198;2023-05-23T15:03:27;21.70;99.90
11934;DHT22;6026;48.784;9.198;2023-05-23T15:05:52;21.50;99.90
11934;DHT22;6026;48.784;9.198;2023-05-23T15:08:18;21.40;99.90
11934;DHT22;6026;48.784;9.198;2023-05-23T15:10:44;21.50;99.90
11934;DHT22;6026;48.784;9.198;2023-05-23T15:13:10;21.40;99.90
11934;DHT22;6026;48.784;9.198;2023-05-23T15:15:35;21.50;99.90
11934;DHT22;6026;48.784;9.198;2023-05-23T15:18:02;21.50;99.90
11934;DHT22;6026;48.784;9.198;2023-05-23T15:20:31;21.50;99.90
11934;DHT22;6026;48.784;9.198;2023-05-23T15:22:57;21.50;99.90
11934;DHT22;6026;48.784;9.198;2023-05-23T15:25:22;21.30;99.90
11934;DHT22;6026;48.784;9.198;2023-05-23T15:27:51;21.20;99.90
11934;DHT22;6026;48.784;9.198;2023-05-23T15:30:16;21.00;99.90
11934;DHT22;6026;48.784;9.198;2023-05-23T15:32:42;20.90;99.90
11934;DHT22;6026;48.784;9.198;2023-05-23T15:35:08;21.00;99.90
11934;DHT22;6026;48.784;9.198;2023-05-23T15:37:33;21.10;99.90
11934;DHT22;6026;48.784;9.198;2023-05-23T15:39:59;21.20;99.90
11934;DHT22;6026;48.784;9.198;2023-05-23T15:42:24;21.20;99.90
11934;DHT22;6026;48.784;9.198;2023-05-23T15:44:50;21.10;99.90
11934;DHT22;6026;48.784;9.198;2023-05-23T15:47:16;21.10;99.90
11934;DHT22;6026;48.784;9.198;2023-05-23T15:49:42;21.10;99.90
11934;DHT22;6026;48.784;9.198;2023-05-23T15:52:08;21.20;99.90
11934;DHT22;6026;48.784;9.198;2023-05-23T15:54:34;21.10;99.90
11934;DHT22;6026;48.784;9.198;2023-05-23T15:56:59;21.00;99.90
11934;DHT22;6026;48.784;9.198;2023-05-23T15:59:25;21.00;99.90
11934;DHT22;6026;48.784;9.198;2023-05-23T16:01:50;20.90;99.90
11934;DHT22;6026;48.784;9.198;2023-05-23T16:04:16;20.80;99.90
11934;DHT22;6026;48.784;9.198;2023-05-23T16:06:41;20.80;99.90